Time;durP1;ratioP1;P1;durP2;ratioP2;P2;SDS_P1;SDS_P2;PMS_P1;PMS_P2;Temp;Humidity;BMP_temperature;BMP_pressure;BME280_temperature;BME280_humidity;BME280_pressure;Samples;Min_cycle;Max_cycle;Signal;HPM_P1;HPM_P2
2023/11/06 00:01:31;;;;;;;2.33;1.20;;;;;;;8.08;100.00;153435.22;4957172;29;20463;-86
2023/11/06 00:03:59;;;;;;;1.57;1.00;;;;;;;8.08;100.00;153435.22;4941110;29;20479;-86
2023/11/06 00:06:27;;;;;;;2.90;0.80;;;;;;;8.09;100.00;153437.81;4957280;29;20459;-87
2023/11/06 00:08:55;;;;;;;2.00;1.30;;;;;;;8.09;100.00;153437.81;4956661;29;20570;-87
2023/11/06 00:11:22;;;;;;;3.30;1.00;;;;;;;8.09;100.00;153437.81;4940097;29;20466;-87
2023/11/06 00:13:50;;;;;;;2.60;0.97;;;;;;;8.11;100.00;153443.00;4940894;29;20490;-87
2023/11/06 00:16:18;;;;;;;1.57;0.90;;;;;;;8.10;100.00;153440.38;4940451;29;20486;-87
2023/11/06 00:18:47;;;;;;;1.10;0.90;;;;;;;8.11;100.00;153441.69;4956886;29;20792;-87
2023/11/06 00:21:15;;;;;;;2.10;1.10;;;;;;;8.11;100.00;153441.69;4956875;29;20447;-85
2023/11/06 00:23:44;;;;;;;4.93;1.00;;;;;;;8.13;100.00;153446.88;4924807;29;20448;-86
2023/11/06 00:26:13;;;;;;;1.00;0.60;;;;;;;8.13;100.00;153446.88;4956540;29;20748;-87
2023/11/06 00:28:43;;;;;;;1.73;1.13;;;;;;;8.11;100.00;153443.00;4955998;29;20479;-87
2023/11/06 00:31:11;;;;;;;2.80;1.07;;;;;;;8.10;100.00;153440.38;4940731;29;20443;-87
2023/11/06 00:33:39;;;;;;;1.80;1.00;;;;;;;8.11;100.00;153441.69;4956835;29;20630;-87
2023/11/06 00:36:17;;;;;;;2.43;1.30;;;;;;;8.12;100.00;153444.28;4941042;29;20435;-86
2023/11/06 00:38:45;;;;;;;2.20;1.20;;;;;;;8.08;100.00;153435.22;4957129;29;20455;-85
2023/11/06 00:41:12;;;;;;;1.40;0.90;;;;;;;8.03;100.00;153422.31;4940865;29;20463;-85
2023/11/06 00:43:40;;;;;;;3.93;1.03;;;;;;;8.00;100.00;153414.53;4940822;29;20815;-87
2023/11/06 00:46:08;;;;;;;1.53;0.90;;;;;;;7.97;100.00;153406.78;4957339;29;20488;-87
2023/11/06 00:48:36;;;;;;;1.50;0.93;;;;;;;7.95;100.00;153401.63;4941139;29;20760;-87
2023/11/06 00:51:03;;;;;;;1.63;1.00;;;;;;;7.95;100.00;153401.63;4941018;29;20536;-87
2023/11/06 00:53:33;;;;;;;1.80;1.27;;;;;;;7.94;100.00;153400.34;4957109;29;20626;-87
2023/11/06 00:56:00;;;;;;;2.70;1.20;;;;;;;7.91;100.00;153391.31;4940829;29;20467;-87
2023/11/06 00:58:29;;;;;;;4.03;1.47;;;;;;;7.90;100.00;153390.03;4956767;29;20455;-87
2023/11/06 01:00:56;;;;;;;2.13;1.23;;;;;;;7.87;100.00;153380.97;4957149;29;20450;-87
2023/11/06 01:03:24;;;;;;;3.40;1.23;;;;;;;7.86;100.00;153379.66;4957260;29;20651;-87
2023/11/06 01:05:54;;;;;;;4.37;1.57;;;;;;;7.87;100.00;153380.97;4957126;29;20470;-87
2023/11/06 01:08:21;;;;;;;2.57;1.10;;;;;;;7.85;100.00;153377.09;4957423;29;20430;-87
2023/11/06 01:10:50;;;;;;;1.00;0.70;;;;;;;7.82;100.00;153368.03;4941731;29;20510;-87
2023/11/06 01:13:18;;;;;;;2.20;1.53;;;;;;;7.83;100.00;153370.66;4941563;29;20443;-86
2023/11/06 01:15:46;;;;;;;5.17;1.50;;;;;;;7.80;100.00;153362.88;4973351;28;20572;-87
2023/11/06 01:18:15;;;;;;;2.17;1.40;;;;;;;7.78;100.00;153357.72;4942557;29;20527;-87
2023/11/06 01:20:44;;;;;;;2.90;1.23;;;;;;;7.76;100.00;153352.53;4958000;29;20450;-87
2023/11/06 01:23:12;;;;;;;2.10;1.10;;;;;;;7.71;100.00;153340.91;4959048;29;20452;-87
2023/11/06 01:25:42;;;;;;;1.73;1.27;;;;;;;7.70;100.00;153337.06;4957379;29;20451;-87
2023/11/06 01:28:12;;;;;;;3.43;0.93;;;;;;;7.71;100.00;153339.63;4957423;29;20451;-87
2023/11/06 01:30:40;;;;;;;2.70;1.07;;;;;;;7.72;100.00;153342.22;4941805;29;20499;-87
2023/11/06 01:33:08;;;;;;;2.17;1.10;;;;;;;7.73;100.00;153344.81;4942071;29;20782;-86
2023/11/06 01:35:37;;;;;;;4.10;1.47;;;;;;;7.74;100.00;153348.69;4956274;29;20455;-86
2023/11/06 01:38:04;;;;;;;1.43;0.70;;;;;;;7.72;100.00;153342.22;4955943;28;20440;-86
2023/11/06 01:40:32;;;;;;;1.80;1.10;;;;;;;7.72;100.00;153342.22;4954894;29;20491;-86
2023/11/06 01:43:05;;;;;;;2.07;1.27;;;;;;;7.73;100.00;153344.81;4955549;29;20487;-86
2023/11/06 01:45:34;;;;;;;2.70;1.07;;;;;;;7.73;100.00;153344.81;4955813;29;20443;-86
2023/11/06 01:48:02;;;;;;;1.90;1.30;;;;;;;7.70;100.00;153337.06;4972609;28;20439;-87
2023/11/06 01:50:31;;;;;;;1.40;0.90;;;;;;;7.70;100.00;153337.06;4957255;29;20483;-86
2023/11/06 01:53:03;;;;;;;2.10;1.10;;;;;;;7.68;100.00;153333.16;4940992;29;20502;-85
2023/11/06 01:55:32;;;;;;;1.67;1.10;;;;;;;7.67;100.00;153330.59;4956286;29;20866;-86
2023/11/06 01:58:00;;;;;;;2.30;1.00;;;;;;;7.66;100.00;153328.00;4956509;29;20479;-86
2023/11/06 02:00:28;;;;;;;2.40;1.17;;;;;;;7.65;100.00;153324.16;4955993;29;20459;-86
2023/11/06 02:02:56;;;;;;;2.60;1.17;;;;;;;7.65;100.00;153325.41;4956327;29;20443;-87
2023/11/06 02:05:28;;;;;;;1.70;0.90;;;;;;;7.67;100.00;153329.31;4940555;29;20621;-86
2023/11/06 02:07:55;;;;;;;2.03;1.00;;;;;;;7.67;100.00;153329.31;4956335;29;20494;-86
2023/11/06 02:10:23;;;;;;;1.50;0.97;;;;;;;7.66;100.00;153326.72;4940541;29;20542;-86
2023/11/06 02:12:51;;;;;;;1.40;0.70;;;;;;;7.64;100.00;153321.56;4940518;29;20436;-86
2023/11/06 02:15:20;;;;;;;3.40;1.13;;;;;;;7.64;100.00;153322.84;4956930;29;20683;-86
2023/11/06 02:17:47;;;;;;;2.30;1.30;;;;;;;7.63;100.00;153318.94;4940971;29;20459;-86
2023/11/06 02:20:16;;;;;;;1.80;1.10;;;;;;;7.64;100.00;153321.56;4940820;29;20487;-86
2023/11/06 02:22:45;;;;;;;1.63;0.90;;;;;;;7.63;100.00;153318.94;4941329;29;20431;-86
2023/11/06 02:25:14;;;;;;;1.77;0.80;;;;;;;7.63;100.00;153318.94;4975056;28;20451;-86
2023/11/06 02:27:41;;;;;;;1.37;0.90;;;;;;;7.65;100.00;153325.41;4958418;29;20443;-86
2023/11/06 02:30:10;;;;;;;4.43;1.67;;;;;;;7.66;100.00;153326.72;4957854;29;20475;-86
2023/11/06 02:32:38;;;;;;;1.50;0.73;;;;;;;7.66;100.00;153328.00;4958538;29;20467;-86
2023/11/06 02:35:07;;;;;;;1.43;0.60;;;;;;;7.65;100.00;153325.41;4958688;29;20443;-86
2023/11/06 02:37:35;;;;;;;2.87;1.00;;;;;;;7.63;100.00;153320.25;4942530;29;20452;-86
2023/11/06 02:40:06;;;;;;;1.87;1.03;;;;;;;7.61;100.00;153315.09;4959203;29;20467;-86
2023/11/06 02:42:36;;;;;;;1.90;0.97;;;;;;;7.60;100.00;153312.50;4942994;29;20466;-86
2023/11/06 02:45:04;;;;;;;1.53;0.70;;;;;;;7.58;100.00;153306.03;4960937;29;20487;-86
2023/11/06 02:47:31;;;;;;;2.30;1.13;;;;;;;7.58;100.00;153306.03;4959103;29;20446;-86
2023/11/06 02:49:59;;;;;;;2.23;0.90;;;;;;;7.57;100.00;153303.47;4958508;29;20510;-86
2023/11/06 02:52:27;;;;;;;1.63;0.77;;;;;;;7.58;100.00;153306.03;4943804;29;20443;-86
2023/11/06 02:54:56;;;;;;;1.67;0.93;;;;;;;7.58;100.00;153306.03;4959750;29;20478;-86
2023/11/06 02:57:25;;;;;;;2.40;0.80;;;;;;;7.56;100.00;153300.88;4943634;29;20996;-86
2023/11/06 02:59:54;;;;;;;2.40;1.07;;;;;;;7.54;100.00;153295.72;4959668;29;20439;-86
2023/11/06 03:02:21;;;;;;;1.17;0.77;;;;;;;7.51;100.00;153289.28;4967990;29;20475;-86
2023/11/06 03:04:48;;;;;;;1.00;0.60;;;;;;;7.51;100.00;153287.97;4959390;29;20439;-86
2023/11/06 03:07:16;;;;;;;1.53;0.90;;;;;;;7.50;100.00;153285.38;4943908;29;20447;-86
2023/11/06 03:09:45;;;;;;;1.40;0.90;;;;;;;7.50;100.00;153285.38;4959431;29;20474;-86
2023/11/06 03:12:12;;;;;;;2.10;0.80;;;;;;;7.50;100.00;153285.38;4943392;29;20466;-86
2023/11/06 03:14:42;;;;;;;1.40;0.80;;;;;;;7.49;100.00;153284.13;4944228;29;20470;-86
2023/11/06 03:17:12;;;;;;;1.97;0.70;;;;;;;7.47;100.00;153277.63;4943559;29;20554;-86
2023/11/06 03:19:40;;;;;;;3.07;0.80;;;;;;;7.47;100.00;153278.91;4975724;29;20466;-86
2023/11/06 03:22:08;;;;;;;1.60;0.63;;;;;;;7.46;100.00;153275.06;4944158;29;20461;-86
2023/11/06 03:24:35;;;;;;;1.50;0.67;;;;;;;7.46;100.00;153276.34;4959732;29;20450;-85
2023/11/06 03:27:02;;;;;;;1.00;0.60;;;;;;;7.46;100.00;153276.34;4943809;29;20453;-85
2023/11/06 03:29:29;;;;;;;1.93;0.70;;;;;;;7.47;100.00;153277.63;4960341;29;20448;-85
2023/11/06 03:31:56;;;;;;;1.30;0.60;;;;;;;7.46;100.00;153275.06;4976465;29;20451;-85
2023/11/06 03:34:27;;;;;;;1.73;0.60;;;;;;;7.45;100.00;153272.47;4960170;29;20450;-85
2023/11/06 03:36:58;;;;;;;2.00;0.70;;;;;;;7.43;100.00;153267.31;4960253;29;20457;-86
2023/11/06 03:39:25;;;;;;;2.00;0.67;;;;;;;7.42;100.00;153264.69;4960002;29;20648;-85
2023/11/06 03:41:53;;;;;;;1.10;0.60;;;;;;;7.37;100.00;153253.09;4958266;29;20444;-85
2023/11/06 03:44:21;;;;;;;1.50;1.00;;;;;;;7.42;100.00;153264.69;4958391;29;20452;-86
2023/11/06 03:46:48;;;;;;;1.73;0.50;;;;;;;7.43;100.00;153268.59;4958280;29;20455;-85
2023/11/06 03:49:16;;;;;;;1.70;0.50;;;;;;;7.46;100.00;153275.06;4943078;29;20436;-85
2023/11/06 03:51:44;;;;;;;1.90;0.80;;;;;;;7.49;100.00;153282.81;4943993;29;20487;-86
2023/11/06 03:54:13;;;;;;;1.50;0.70;;;;;;;7.51;100.00;153287.97;4942683;29;20440;-86
2023/11/06 03:56:40;;;;;;;4.90;0.70;;;;;;;7.50;100.00;153286.66;4958209;29;20459;-85
2023/11/06 03:59:08;;;;;;;1.90;0.80;;;;;;;7.51;100.00;153287.97;4958853;29;20456;-85
2023/11/06 04:01:35;;;;;;;1.97;0.80;;;;;;;7.52;100.00;153291.81;4973909;28;20440;-85
2023/11/06 04:04:03;;;;;;;1.90;0.73;;;;;;;7.55;100.00;153298.28;4958518;29;20475;-85
2023/11/06 04:06:31;;;;;;;2.20;0.90;;;;;;;7.57;100.00;153303.47;4958910;29;20456;-86
2023/11/06 04:08:59;;;;;;;5.50;1.00;;;;;;;7.57;100.00;153303.47;4943381;29;20439;-86
2023/11/06 04:11:28;;;;;;;3.10;0.90;;;;;;;7.58;100.00;153307.34;4959670;29;20530;-86
2023/11/06 04:13:56;;;;;;;3.23;0.80;;;;;;;7.58;100.00;153307.34;4973821;29;20443;-86
2023/11/06 04:16:23;;;;;;;1.20;0.70;;;;;;;7.59;100.00;153308.63;4941034;29;20467;-86
2023/11/06 04:18:51;;;;;;;1.20;0.90;;;;;;;7.57;100.00;153304.72;4973389;29;20431;-86
2023/11/06 04:21:19;;;;;;;1.20;0.60;;;;;;;7.55;100.00;153299.59;4941760;29;20440;-86
2023/11/06 04:23:46;;;;;;;1.70;0.67;;;;;;;7.55;100.00;153298.28;4941629;29;20435;-86
2023/11/06 04:26:16;;;;;;;1.93;0.73;;;;;;;7.55;100.00;153298.28;4941945;29;20623;-85
2023/11/06 04:28:43;;;;;;;2.67;1.00;;;;;;;7.55;100.00;153299.59;4957700;29;20799;-86
2023/11/06 04:31:12;;;;;;;1.00;0.50;;;;;;;7.59;100.00;153308.63;4958031;29;20490;-86
2023/11/06 04:33:41;;;;;;;1.30;0.70;;;;;;;7.57;100.00;153303.47;4942068;29;20679;-86
2023/11/06 04:36:09;;;;;;;1.17;0.57;;;;;;;7.58;100.00;153306.03;4957734;29;20451;-86
2023/11/06 04:38:36;;;;;;;3.60;1.10;;;;;;;7.57;100.00;153303.47;4941709;29;20495;-86
2023/11/06 04:41:04;;;;;;;1.30;0.70;;;;;;;7.56;100.00;153300.88;4957435;29;20445;-86
2023/11/06 04:43:33;;;;;;;2.00;0.83;;;;;;;7.52;100.00;153290.56;4941095;29;20521;-85
2023/11/06 04:46:01;;;;;;;1.53;0.83;;;;;;;7.50;100.00;153285.38;4941991;29;20451;-85
2023/11/06 04:48:28;;;;;;;1.30;0.77;;;;;;;7.49;100.00;153282.81;4941895;29;20451;-85
2023/11/06 04:50:56;;;;;;;2.10;0.90;;;;;;;7.46;100.00;153275.06;4942130;29;20470;-85
2023/11/06 04:53:23;;;;;;;1.97;0.97;;;;;;;7.44;100.00;153269.91;4957617;29;20756;-85
2023/11/06 04:55:53;;;;;;;2.70;0.80;;;;;;;7.43;100.00;153267.31;4957549;29;20443;-85
2023/11/06 04:58:23;;;;;;;3.07;0.60;;;;;;;7.41;100.00;153262.16;4966101;29;20440;-85
2023/11/06 05:00:52;;;;;;;5.10;1.30;;;;;;;7.41;100.00;153262.16;4942138;29;20439;-86
2023/11/06 05:03:20;;;;;;;1.90;0.70;;;;;;;7.36;100.00;153251.78;4942730;29;20510;-86
2023/11/06 05:05:47;;;;;;;1.73;0.87;;;;;;;7.33;100.00;153244.03;4941913;29;20483;-85
2023/11/06 05:08:15;;;;;;;1.70;0.90;;;;;;;7.31;100.00;153238.88;4943078;29;20539;-86
2023/11/06 05:10:42;;;;;;;1.80;0.60;;;;;;;7.29;100.00;153233.72;4942695;29;20475;-86
2023/11/06 05:13:10;;;;;;;2.70;0.90;;;;;;;7.26;100.00;153225.97;4942432;29;20456;-87
2023/11/06 05:15:40;;;;;;;3.47;1.10;;;;;;;7.27;100.00;153228.56;4960085;29;20478;-86
2023/11/06 05:18:09;;;;;;;2.00;0.70;;;;;;;7.25;100.00;153222.13;4957027;29;20447;-86
2023/11/06 05:20:39;;;;;;;2.60;0.90;;;;;;;7.25;100.00;153222.13;4942067;29;20461;-85
2023/11/06 05:23:07;;;;;;;2.57;0.67;;;;;;;7.25;100.00;153222.13;4941946;29;20447;-86
2023/11/06 05:25:34;;;;;;;1.43;0.90;;;;;;;7.27;100.00;153228.56;4942241;29;20565;-86
2023/11/06 05:28:01;;;;;;;1.97;0.90;;;;;;;7.31;100.00;153237.59;4958377;29;20444;-86
2023/11/06 05:30:31;;;;;;;1.20;0.80;;;;;;;7.33;100.00;153244.03;4958597;29;20482;-85
2023/11/06 05:33:02;;;;;;;2.03;0.80;;;;;;;7.39;100.00;153257.00;4958262;29;20453;-86
2023/11/06 05:35:34;;;;;;;1.93;1.10;;;;;;;7.41;100.00;153263.44;4958504;29;20459;-85
2023/11/06 05:38:03;;;;;;;1.17;0.60;;;;;;;7.43;100.00;153267.31;4942653;29;20436;-86
2023/11/06 05:40:30;;;;;;;1.47;0.57;;;;;;;7.42;100.00;153264.69;4942892;29;20717;-85
2023/11/06 05:43:00;;;;;;;2.53;0.57;;;;;;;7.42;100.00;153266.00;4958942;29;20428;-86
2023/11/06 05:45:27;;;;;;;3.10;0.90;;;;;;;7.42;100.00;153264.69;4943038;29;20435;-86
2023/11/06 05:47:55;;;;;;;1.20;0.70;;;;;;;7.41;100.00;153262.16;4959445;29;20427;-86
2023/11/06 05:50:30;;;;;;;1.60;0.83;;;;;;;7.40;100.00;153259.53;4959171;29;20471;-86
2023/11/06 05:53:02;;;;;;;3.90;0.80;;;;;;;7.40;100.00;153259.53;4961623;29;20447;-86
2023/11/06 05:55:32;;;;;;;1.93;0.60;;;;;;;7.36;100.00;153251.78;4961674;29;20518;-83
2023/11/06 05:58:01;;;;;;;1.43;0.70;;;;;;;7.34;100.00;153246.63;4943418;29;20455;-86
2023/11/06 06:00:30;;;;;;;1.30;0.67;;;;;;;7.32;100.00;153240.19;4955969;29;20436;-85
2023/11/06 06:03:04;;;;;;;1.20;0.70;;;;;;;7.30;100.00;153236.34;4939540;29;20443;-86
2023/11/06 06:05:31;;;;;;;1.20;0.70;;;;;;;7.30;100.00;153236.34;4955524;29;20498;-86
2023/11/06 06:08:00;;;;;;;5.50;0.70;;;;;;;7.30;100.00;153236.34;4940027;29;20549;-86
2023/11/06 06:10:27;;;;;;;1.20;0.70;;;;;;;7.29;100.00;153233.72;4955294;29;20512;-87
2023/11/06 06:12:55;;;;;;;2.93;0.80;;;;;;;7.27;100.00;153228.56;4955374;29;20463;-86
2023/11/06 06:15:25;;;;;;;1.47;0.90;;;;;;;7.25;100.00;153223.38;4954556;29;20444;-85
2023/11/06 06:17:52;;;;;;;1.70;0.77;;;;;;;7.24;100.00;153220.81;4954658;29;20473;-86
2023/11/06 06:20:25;;;;;;;2.13;0.77;;;;;;;7.22;100.00;153214.38;4955094;29;20451;-86
2023/11/06 06:22:55;;;;;;;1.97;0.50;;;;;;;7.20;100.00;153210.47;4955320;29;20550;-86
2023/11/06 06:25:36;;;;;;;0.83;0.47;;;;;;;7.22;100.00;153215.66;4954951;29;20503;-86
2023/11/06 06:28:04;;;;;;;2.03;0.90;;;;;;;7.17;100.00;153202.75;4954901;29;20478;-86
2023/11/06 06:30:31;;;;;;;3.90;1.53;;;;;;;7.17;100.00;153202.75;4955100;29;20620;-86
2023/11/06 06:32:59;;;;;;;2.93;2.20;;;;;;;7.17;100.00;153202.75;4954932;29;20519;-86
2023/11/06 06:35:26;;;;;;;2.43;1.20;;;;;;;7.15;100.00;153196.25;4954830;29;20466;-86
2023/11/06 06:37:54;;;;;;;1.27;0.90;;;;;;;7.14;100.00;153193.72;4937834;29;20446;-85
2023/11/06 06:40:23;;;;;;;1.27;0.90;;;;;;;7.17;100.00;153202.75;4954487;29;20447;-85
2023/11/06 06:42:51;;;;;;;2.40;1.20;;;;;;;7.25;100.00;153223.38;4954897;29;20443;-85
2023/11/06 06:45:22;;;;;;;1.30;0.80;;;;;;;7.35;100.00;153249.25;4940210;29;20455;-85
2023/11/06 06:47:50;;;;;;;3.67;0.80;;;;;;;7.47;100.00;153277.63;4955714;29;20454;-85
2023/11/06 06:50:17;;;;;;;1.70;0.70;;;;;;;7.64;100.00;153322.84;4955320;29;20522;-85
2023/11/06 06:52:45;;;;;;;1.73;1.30;;;;;;;7.92;100.00;153395.19;4955134;29;20455;-85
2023/11/06 06:55:12;;;;;;;1.63;0.83;;;;;;;8.47;100.00;153536.06;4971698;28;20454;-85
2023/11/06 06:57:39;;;;;;;1.77;0.90;;;;;;;9.15;100.00;153710.66;4971229;29;20489;-85
2023/11/06 07:00:13;;;;;;;1.47;0.70;;;;;;;9.67;100.00;153842.56;4955535;29;20460;-85
2023/11/06 07:02:40;;;;;;;1.53;0.77;;;;;;;9.80;100.00;153877.50;4939857;29;20440;-85
2023/11/06 07:05:09;;;;;;;0.90;0.40;;;;;;;9.75;100.00;153864.56;4954970;29;20439;-85
2023/11/06 07:07:38;;;;;;;1.40;0.60;;;;;;;10.22;100.00;153983.66;4955030;29;20620;-85
2023/11/06 07:10:08;;;;;;;1.00;0.50;;;;;;;10.79;100.00;154131.28;4955303;29;20820;-86
2023/11/06 07:12:35;;;;;;;1.20;0.53;;;;;;;11.20;100.00;154234.94;4938944;29;20490;-86
2023/11/06 07:15:04;;;;;;;1.17;0.70;;;;;;;11.59;100.00;154335.97;4955151;29;20497;-85
2023/11/06 07:17:33;;;;;;;1.50;0.57;;;;;;;12.09;99.51;154464.31;4939242;29;20443;-85
2023/11/06 07:20:01;;;;;;;1.00;0.60;;;;;;;12.36;96.50;154533.03;4954867;29;20741;-85
2023/11/06 07:22:29;;;;;;;1.90;0.63;;;;;;;12.11;95.43;154469.50;4955674;29;20906;-86
2023/11/06 07:24:57;;;;;;;1.00;0.43;;;;;;;11.82;96.84;154395.63;4971094;28;20534;-86
2023/11/06 07:27:24;;;;;;;1.87;0.50;;;;;;;12.08;97.42;154463.03;4954939;29;20760;-86
2023/11/06 07:29:52;;;;;;;1.73;0.70;;;;;;;12.52;94.85;154574.53;4954985;29;20436;-86
2023/11/06 07:32:20;;;;;;;1.50;0.60;;;;;;;12.71;92.70;154623.78;4955305;29;20471;-86
2023/11/06 07:34:51;;;;;;;2.37;0.60;;;;;;;12.13;92.79;154475.97;4955394;29;20448;-86
2023/11/06 07:37:18;;;;;;;1.33;0.67;;;;;;;11.52;95.26;154317.81;4941781;29;20435;-86
2023/11/06 07:39:48;;;;;;;2.20;0.70;;;;;;;10.89;98.68;154155.88;4958574;29;20463;-85
2023/11/06 07:42:16;;;;;;;2.00;1.00;;;;;;;10.47;100.00;154048.41;4944141;29;20440;-85
2023/11/06 07:44:44;;;;;;;1.30;0.73;;;;;;;10.19;100.00;153975.94;4959821;29;20447;-85
2023/11/06 07:47:13;;;;;;;1.80;0.60;;;;;;;9.98;100.00;153921.53;4944888;29;20434;-86
2023/11/06 07:49:40;;;;;;;2.17;0.90;;;;;;;9.82;100.00;153882.69;4945156;29;20462;-85
2023/11/06 07:52:10;;;;;;;1.50;0.70;;;;;;;9.69;100.00;153849.03;4960365;29;20538;-85
2023/11/06 07:54:40;;;;;;;1.20;0.80;;;;;;;9.61;100.00;153828.34;4960565;29;20458;-85
2023/11/06 07:57:09;;;;;;;1.77;0.70;;;;;;;9.56;100.00;153815.41;4960770;29;20443;-86
2023/11/06 07:59:44;;;;;;;1.10;0.60;;;;;;;9.51;100.00;153802.47;4960323;29;20455;-85
2023/11/06 08:02:21;;;;;;;1.93;0.60;;;;;;;9.49;100.00;153797.31;4945409;29;20483;-86
2023/11/06 08:04:50;;;;;;;4.30;0.87;;;;;;;9.46;100.00;153789.53;4960945;29;20451;-85
2023/11/06 08:07:20;;;;;;;1.67;0.80;;;;;;;9.44;100.00;153784.38;4944350;29;20463;-85
2023/11/06 08:09:47;;;;;;;2.50;1.10;;;;;;;9.45;100.00;153786.94;4958313;29;20448;-85
2023/11/06 08:12:17;;;;;;;2.43;0.97;;;;;;;9.46;100.00;153789.53;4944263;29;20816;-85
2023/11/06 08:14:46;;;;;;;3.10;0.60;;;;;;;9.43;100.00;153781.75;4960599;29;20515;-85
2023/11/06 08:17:17;;;;;;;1.67;0.93;;;;;;;9.42;100.00;153777.91;4976696;28;20494;-85
2023/11/06 08:19:45;;;;;;;2.70;0.77;;;;;;;9.44;100.00;153783.06;4960387;29;20451;-85
2023/11/06 08:22:12;;;;;;;2.00;0.80;;;;;;;9.44;100.00;153784.38;4958425;29;20452;-85
2023/11/06 08:24:46;;;;;;;1.73;0.90;;;;;;;9.42;100.00;153779.22;4943491;29;20458;-85
2023/11/06 08:27:13;;;;;;;2.27;1.00;;;;;;;9.40;100.00;153772.75;4959113;29;20455;-85
2023/11/06 08:29:42;;;;;;;1.43;0.50;;;;;;;9.38;100.00;153768.84;4943087;29;20470;-85
2023/11/06 08:32:10;;;;;;;1.90;1.00;;;;;;;9.36;100.00;153763.66;4957879;29;20482;-85
2023/11/06 08:34:40;;;;;;;2.40;0.77;;;;;;;9.34;100.00;153758.50;4959093;29;20626;-84
2023/11/06 08:37:09;;;;;;;2.17;1.07;;;;;;;9.35;100.00;153759.75;4958799;29;20442;-85
2023/11/06 08:39:43;;;;;;;2.50;0.70;;;;;;;9.44;100.00;153784.38;4958663;29;20454;-84
2023/11/06 08:42:11;;;;;;;2.17;0.70;;;;;;;9.52;100.00;153803.78;4959030;29;20538;-84
2023/11/06 08:44:40;;;;;;;3.27;0.73;;;;;;;9.59;100.00;153823.16;4958740;29;20450;-85
2023/11/06 08:47:07;;;;;;;1.23;0.70;;;;;;;9.57;100.00;153818.00;4959096;29;20458;-84
2023/11/06 08:49:35;;;;;;;1.73;0.40;;;;;;;9.56;100.00;153815.41;4958954;29;20522;-84
2023/11/06 08:52:02;;;;;;;0.90;0.60;;;;;;;9.51;100.00;153802.47;4943600;29;20684;-84
2023/11/06 08:54:30;;;;;;;1.60;0.50;;;;;;;9.48;100.00;153794.69;4943660;29;20520;-84
2023/11/06 08:57:00;;;;;;;1.27;0.60;;;;;;;9.47;100.00;153792.13;4961134;29;20434;-85
2023/11/06 08:59:27;;;;;;;1.43;0.90;;;;;;;9.46;100.00;153789.53;4978902;28;20443;-85
2023/11/06 09:01:55;;;;;;;2.20;1.33;;;;;;;9.47;100.00;153792.13;4961988;29;20455;-84
2023/11/06 09:04:30;;;;;;;2.10;0.60;;;;;;;9.53;100.00;153807.63;4959254;29;20443;-85
2023/11/06 09:07:06;;;;;;;2.00;0.50;;;;;;;9.61;100.00;153828.34;4959980;29;20467;-85
2023/11/06 09:09:39;;;;;;;1.47;0.60;;;;;;;9.65;100.00;153837.41;4959010;29;20469;-85
2023/11/06 09:12:22;;;;;;;1.10;0.57;;;;;;;9.70;100.00;153851.63;4959021;29;20546;-85
2023/11/06 09:19:27;;;;;;;1.30;0.60;;;;;;;9.91;100.00;153904.69;4928903;29;20440;-85
2023/11/06 09:21:57;;;;;;;3.10;0.80;;;;;;;9.95;100.00;153913.75;4958242;29;20452;-85
2023/11/06 09:24:28;;;;;;;1.70;0.70;;;;;;;10.04;100.00;153937.03;4958846;29;20451;-85
2023/11/06 09:26:58;;;;;;;1.40;0.60;;;;;;;10.08;100.00;153947.41;4926758;29;20455;-84
2023/11/06 09:29:27;;;;;;;1.30;0.60;;;;;;;10.12;100.00;153959.09;4958163;29;20455;-85
2023/11/06 09:31:55;;;;;;;1.73;0.77;;;;;;;10.15;100.00;153965.56;4942317;29;20487;-85
2023/11/06 09:34:23;;;;;;;1.70;0.80;;;;;;;10.10;100.00;153953.88;4948357;29;20548;-85
2023/11/06 09:41:31;;;;;;;1.47;0.70;;;;;;;10.06;100.00;153943.50;4916842;29;20413;-85
2023/11/06 09:43:58;;;;;;;2.07;0.90;;;;;;;10.04;100.00;153937.03;4913782;29;20446;-85
2023/11/06 09:46:27;;;;;;;1.00;0.60;;;;;;;10.06;100.00;153943.50;4958640;29;20531;-85
2023/11/06 09:48:56;;;;;;;1.33;0.60;;;;;;;10.08;100.00;153947.41;4942943;29;20463;-85
2023/11/06 09:51:25;;;;;;;1.00;0.50;;;;;;;10.10;100.00;153952.56;4959018;29;20455;-84
2023/11/06 09:53:53;;;;;;;2.13;0.50;;;;;;;10.10;100.00;153953.88;4943519;29;20479;-84
2023/11/06 09:56:20;;;;;;;1.40;0.53;;;;;;;10.08;100.00;153948.72;4959249;29;20454;-84
2023/11/06 09:58:48;;;;;;;0.93;0.50;;;;;;;10.07;100.00;153946.09;4959067;29;20451;-85
2023/11/06 10:01:15;;;;;;;1.10;0.50;;;;;;;10.05;100.00;153939.63;4958445;29;20427;-85
2023/11/06 10:03:44;;;;;;;0.90;0.50;;;;;;;10.05;100.00;153939.63;4941665;29;20458;-85
2023/11/06 10:06:13;;;;;;;1.10;0.60;;;;;;;10.07;100.00;153946.09;4953985;29;20444;-85
2023/11/06 10:08:41;;;;;;;1.23;0.73;;;;;;;10.04;100.00;153937.03;4954491;29;20455;-84
2023/11/06 10:11:09;;;;;;;1.57;0.50;;;;;;;10.04;100.00;153937.03;4956665;29;20474;-84
2023/11/06 10:13:51;;;;;;;1.80;0.70;;;;;;;10.02;100.00;153933.16;4972600;28;20471;-84
2023/11/06 10:16:21;;;;;;;2.37;0.73;;;;;;;10.05;100.00;153940.94;4940318;29;20462;-85
2023/11/06 10:18:50;;;;;;;2.27;0.70;;;;;;;10.11;100.00;153955.19;4956161;29;20487;-85
2023/11/06 10:21:29;;;;;;;1.50;0.60;;;;;;;10.19;100.00;153977.19;4956101;29;20451;-85
2023/11/06 10:24:04;;;;;;;1.87;0.57;;;;;;;10.26;100.00;153995.34;4955737;29;20453;-85
2023/11/06 10:26:32;;;;;;;2.20;0.50;;;;;;;10.31;100.00;154007.00;4955935;29;20455;-86
2023/11/06 10:29:11;;;;;;;1.33;0.80;;;;;;;10.41;100.00;154032.88;4972090;28;20444;-86
2023/11/06 10:31:40;;;;;;;1.73;0.50;;;;;;;10.38;100.00;154026.41;4955742;29;20655;-85
2023/11/06 10:34:33;;;;;;;1.23;0.50;;;;;;;10.45;100.00;154043.25;4924187;29;20479;-85
2023/11/06 10:37:05;;;;;;;2.30;0.50;;;;;;;10.52;100.00;154060.06;4940457;29;20840;-85
2023/11/06 10:39:33;;;;;;;1.53;0.70;;;;;;;10.61;100.00;154084.69;4956116;29;20539;-85
2023/11/06 10:42:05;;;;;;;1.00;0.50;;;;;;;10.66;100.00;154097.63;4940782;29;20431;-85
2023/11/06 10:44:34;;;;;;;1.37;0.60;;;;;;;10.70;100.00;154107.97;4956512;29;20538;-85
2023/11/06 10:47:07;;;;;;;2.93;0.70;;;;;;;10.76;100.00;154122.22;4956620;29;20443;-85
2023/11/06 10:49:37;;;;;;;0.90;0.50;;;;;;;10.74;100.00;154118.34;4972943;28;20494;-86
2023/11/06 10:52:07;;;;;;;1.70;0.70;;;;;;;10.76;100.00;154123.53;4941269;29;20478;-85
2023/11/06 10:54:36;;;;;;;1.73;0.70;;;;;;;10.73;100.00;154115.75;4956522;29;20531;-85
2023/11/06 10:57:07;;;;;;;1.70;0.67;;;;;;;10.73;100.00;154115.75;4942837;29;20471;-85
2023/11/06 10:59:36;;;;;;;1.87;0.60;;;;;;;10.77;100.00;154126.13;4954472;29;20432;-85
2023/11/06 11:02:05;;;;;;;1.00;0.53;;;;;;;10.79;100.00;154131.28;4938815;29;20439;-85
2023/11/06 11:04:35;;;;;;;0.80;0.40;;;;;;;10.84;100.00;154144.25;4954522;29;20751;-85
2023/11/06 11:07:05;;;;;;;1.10;0.40;;;;;;;10.83;100.00;154141.63;4954311;29;20423;-86
2023/11/06 11:09:34;;;;;;;1.40;0.70;;;;;;;10.85;100.00;154146.84;4955803;29;20472;-86
2023/11/06 11:12:04;;;;;;;1.03;0.50;;;;;;;10.90;100.00;154158.50;4957687;29;20558;-86
2023/11/06 11:14:33;;;;;;;1.60;0.60;;;;;;;10.92;100.00;154163.66;4943691;29;20466;-85
2023/11/06 11:17:09;;;;;;;2.57;1.10;;;;;;;10.98;100.00;154180.53;4959373;29;20443;-85
2023/11/06 11:19:37;;;;;;;1.20;0.40;;;;;;;10.99;100.00;154183.09;4943295;29;20478;-85
2023/11/06 11:22:08;;;;;;;1.00;0.40;;;;;;;11.02;100.00;154189.56;4959151;29;20462;-85
2023/11/06 11:24:52;;;;;;;1.60;0.77;;;;;;;11.03;100.00;154192.16;4959870;29;20510;-85
2023/11/06 11:27:23;;;;;;;1.07;0.40;;;;;;;11.06;100.00;154199.94;4959846;29;20459;-85
2023/11/06 11:30:21;;;;;;;1.23;0.50;;;;;;;11.04;100.00;154193.47;4959622;29;20443;-86
2023/11/06 11:32:49;;;;;;;1.40;0.73;;;;;;;11.07;100.00;154201.25;4944193;29;20467;-85
2023/11/06 11:35:50;;;;;;;1.63;0.43;;;;;;;11.10;100.00;154208.97;4960134;29;20510;-85
2023/11/06 11:38:35;;;;;;;1.00;0.47;;;;;;;11.11;100.00;154212.88;4974489;29;20488;-85
2023/11/06 11:41:21;;;;;;;3.67;0.80;;;;;;;11.15;100.00;154221.94;4944310;29;20439;-85
2023/11/06 11:43:49;;;;;;;0.90;0.47;;;;;;;11.22;100.00;154240.09;4956609;29;20442;-85